EUS6DC EINN-EGCC
Flight info
| Callsign | EUS6DC |
|---|---|
| Flight time | 0h 48m |
| Altitude | 35000 |
| Route | AGINI3A AGINI DCT BOFUM Q37 MALUD |
| Aircraft | A320/M-SDE3FGHIRWY/LB1 |
Departure
| Time | 2026-05-04 10:34 |
|---|---|
| Airport | Shannon Airport (EINN) |
Arrival
| Time | 2026-05-04 11:23 |
|---|---|
| Airport | Manchester Airport (EGCC) |
| Time | Latitude | Longitude | Altitude | Speed | Heading |
|---|---|---|---|---|---|
| 2026-05-04 10:16 | 52.69368 | -8.92067 | 42 ft | 0 kts | 191° |
| 2026-05-04 10:27 | 52.69387 | -8.92061 | 42 ft | 4 kts | 192° |
| 2026-05-04 10:27 | 52.69413 | -8.92050 | 41 ft | 4 kts | 197° |
| 2026-05-04 10:27 | 52.69438 | -8.92036 | 40 ft | 4 kts | 208° |
| 2026-05-04 10:27 | 52.69457 | -8.92010 | 39 ft | 4 kts | 263° |
| 2026-05-04 10:28 | 52.69458 | -8.92000 | 38 ft | 0 kts | 283° |
| 2026-05-04 10:30 | 52.69464 | -8.92044 | 41 ft | 7 kts | 283° |
| 2026-05-04 10:30 | 52.69484 | -8.92171 | 42 ft | 13 kts | 288° |
| 2026-05-04 10:30 | 52.69524 | -8.92317 | 42 ft | 15 kts | 300° |
| 2026-05-04 10:30 | 52.69596 | -8.92453 | 43 ft | 17 kts | 315° |
| 2026-05-04 10:31 | 52.69653 | -8.92546 | 43 ft | 18 kts | 316° |
| 2026-05-04 10:31 | 52.69747 | -8.92698 | 43 ft | 20 kts | 315° |
| 2026-05-04 10:32 | 52.69514 | -8.93929 | 52 ft | 29 kts | 231° |
| 2026-05-04 10:33 | 52.69400 | -8.94166 | 54 ft | 17 kts | 229° |
| 2026-05-04 10:33 | 52.69306 | -8.94247 | 53 ft | 10 kts | 205° |
| 2026-05-04 10:33 | 52.69309 | -8.94324 | 51 ft | 6 kts | 332° |
| 2026-05-04 10:33 | 52.69343 | -8.94295 | 53 ft | 8 kts | 54° |
| 2026-05-04 10:34 | 52.69489 | -8.93984 | 53 ft | 72 kts | 52° |
| 2026-05-04 10:34 | 52.69941 | -8.93027 | 43 ft | 136 kts | 52° |
| 2026-05-04 10:34 | 52.70607 | -8.91627 | 336 ft | 160 kts | 49° |
| 2026-05-04 10:34 | 52.71281 | -8.90194 | 1273 ft | 156 kts | 49° |
| 2026-05-04 10:35 | 52.72135 | -8.89125 | 1949 ft | 164 kts | 22° |
| 2026-05-04 10:35 | 52.73264 | -8.88380 | 2348 ft | 186 kts | 22° |
| 2026-05-04 10:35 | 52.74542 | -8.87509 | 2746 ft | 211 kts | 23° |
| 2026-05-04 10:35 | 52.75973 | -8.86512 | 3247 ft | 235 kts | 23° |
| 2026-05-04 10:36 | 52.77530 | -8.85418 | 4008 ft | 248 kts | 24° |
| 2026-05-04 10:36 | 52.79137 | -8.84279 | 5001 ft | 254 kts | 24° |
| 2026-05-04 10:36 | 52.80771 | -8.83114 | 5973 ft | 258 kts | 24° |
| 2026-05-04 10:36 | 52.82433 | -8.81924 | 6933 ft | 262 kts | 24° |
| 2026-05-04 10:37 | 52.84118 | -8.80716 | 7867 ft | 266 kts | 24° |
| 2026-05-04 10:37 | 52.85831 | -8.79487 | 8808 ft | 271 kts | 24° |
| 2026-05-04 10:37 | 52.87574 | -8.78236 | 9749 ft | 275 kts | 24° |
| 2026-05-04 10:37 | 52.89351 | -8.76959 | 10462 ft | 287 kts | 24° |
| 2026-05-04 10:39 | 53.01618 | -8.68093 | 14699 ft | 336 kts | 25° |
| 2026-05-04 10:39 | 53.03769 | -8.66524 | 15404 ft | 340 kts | 25° |
| 2026-05-04 10:39 | 53.05947 | -8.64938 | 16110 ft | 343 kts | 25° |
| 2026-05-04 10:40 | 53.08147 | -8.63338 | 16820 ft | 347 kts | 25° |
| 2026-05-04 10:40 | 53.10372 | -8.61719 | 17525 ft | 351 kts | 25° |
| 2026-05-04 10:40 | 53.12548 | -8.59862 | 18204 ft | 354 kts | 35° |
| 2026-05-04 10:40 | 53.14412 | -8.57177 | 18813 ft | 356 kts | 49° |
| 2026-05-04 10:41 | 53.15820 | -8.53777 | 19404 ft | 359 kts | 64° |
| 2026-05-04 10:41 | 53.16678 | -8.49861 | 19985 ft | 362 kts | 77° |
| 2026-05-04 10:41 | 53.17236 | -8.45743 | 20573 ft | 366 kts | 78° |
| 2026-05-04 10:41 | 53.17800 | -8.41583 | 21149 ft | 370 kts | 78° |
| 2026-05-04 10:42 | 53.18372 | -8.37382 | 21709 ft | 374 kts | 78° |
| 2026-05-04 10:42 | 53.18949 | -8.33131 | 22257 ft | 378 kts | 78° |
| 2026-05-04 10:42 | 53.19534 | -8.28836 | 22772 ft | 382 kts | 78° |
| 2026-05-04 10:42 | 53.20122 | -8.24491 | 23304 ft | 386 kts | 78° |
| 2026-05-04 10:43 | 53.20714 | -8.20098 | 23810 ft | 390 kts | 78° |
| 2026-05-04 10:44 | 53.24919 | -7.88520 | 27013 ft | 406 kts | 78° |
| 2026-05-04 10:45 | 53.25521 | -7.83906 | 27449 ft | 408 kts | 78° |
| 2026-05-04 10:45 | 53.26126 | -7.79263 | 27889 ft | 410 kts | 78° |
| 2026-05-04 10:45 | 53.26738 | -7.74597 | 28310 ft | 413 kts | 78° |
| 2026-05-04 10:45 | 53.27356 | -7.69902 | 28726 ft | 415 kts | 78° |
| 2026-05-04 10:46 | 53.27972 | -7.65183 | 29145 ft | 417 kts | 78° |
| 2026-05-04 10:46 | 53.28587 | -7.60436 | 29571 ft | 419 kts | 78° |
| 2026-05-04 10:46 | 53.29202 | -7.55659 | 29970 ft | 422 kts | 78° |
| 2026-05-04 10:46 | 53.29817 | -7.50853 | 30322 ft | 424 kts | 78° |
| 2026-05-04 10:47 | 53.30433 | -7.46020 | 30641 ft | 426 kts | 78° |
| 2026-05-04 10:47 | 53.31054 | -7.41166 | 30963 ft | 428 kts | 78° |
| 2026-05-04 10:47 | 53.31675 | -7.36280 | 31250 ft | 431 kts | 78° |
| 2026-05-04 10:47 | 53.32296 | -7.31361 | 31539 ft | 433 kts | 78° |
| 2026-05-04 10:49 | 53.36588 | -6.96908 | 34243 ft | 432 kts | 78° |
| 2026-05-04 10:49 | 53.37197 | -6.91978 | 34548 ft | 432 kts | 78° |
| 2026-05-04 10:50 | 53.37803 | -6.87049 | 34834 ft | 433 kts | 78° |
| 2026-05-04 10:51 | 53.41910 | -6.53088 | 35082 ft | 421 kts | 79° |
| 2026-05-04 10:52 | 53.42487 | -6.48269 | 35081 ft | 422 kts | 79° |
| 2026-05-04 10:52 | 53.43632 | -6.38616 | 35108 ft | 423 kts | 79° |
| 2026-05-04 10:54 | 53.48122 | -5.99870 | 35085 ft | 424 kts | 80° |
| 2026-05-04 10:56 | 53.52538 | -5.60789 | 35078 ft | 428 kts | 81° |
| 2026-05-04 10:57 | 53.53557 | -5.50941 | 35077 ft | 427 kts | 86° |
| 2026-05-04 10:57 | 53.53508 | -5.40975 | 35084 ft | 427 kts | 94° |
| 2026-05-04 10:58 | 53.53264 | -5.31003 | 35085 ft | 427 kts | 94° |
| 2026-05-04 10:58 | 53.53009 | -5.20994 | 34963 ft | 435 kts | 94° |
| 2026-05-04 10:58 | 53.52873 | -5.15881 | 34726 ft | 440 kts | 94° |
| 2026-05-04 10:59 | 53.52730 | -5.10738 | 34475 ft | 441 kts | 94° |
| 2026-05-04 10:59 | 53.52573 | -5.05604 | 33882 ft | 439 kts | 95° |
| 2026-05-04 10:59 | 53.52409 | -5.00484 | 33228 ft | 437 kts | 95° |
| 2026-05-04 10:59 | 53.52240 | -4.95412 | 32619 ft | 433 kts | 95° |
| 2026-05-04 11:00 | 53.52068 | -4.90371 | 31996 ft | 431 kts | 95° |
| 2026-05-04 11:01 | 53.50921 | -4.56027 | 27838 ft | 407 kts | 96° |
| 2026-05-04 11:02 | 53.50750 | -4.51312 | 27292 ft | 402 kts | 96° |
| 2026-05-04 11:02 | 53.50579 | -4.46646 | 26752 ft | 398 kts | 95° |
| 2026-05-04 11:05 | 53.46687 | -3.86638 | 20185 ft | 348 kts | 110° |
| 2026-05-04 11:06 | 53.45897 | -3.82817 | 19723 ft | 346 kts | 110° |
| 2026-05-04 11:06 | 53.45111 | -3.79009 | 19271 ft | 345 kts | 110° |
| 2026-05-04 11:06 | 53.44326 | -3.75205 | 18819 ft | 344 kts | 110° |
| 2026-05-04 11:06 | 53.43539 | -3.71420 | 18360 ft | 344 kts | 110° |
| 2026-05-04 11:08 | 53.40600 | -3.43994 | 14956 ft | 347 kts | 95° |
| 2026-05-04 11:10 | 53.39384 | -3.16256 | 12151 ft | 316 kts | 87° |
| 2026-05-04 11:12 | 53.45835 | -2.94358 | 9386 ft | 292 kts | 59° |
| 2026-05-04 11:12 | 53.46850 | -2.91416 | 8946 ft | 291 kts | 59° |
| 2026-05-04 11:12 | 53.47854 | -2.88504 | 8514 ft | 286 kts | 59° |
| 2026-05-04 11:12 | 53.48840 | -2.85630 | 8114 ft | 282 kts | 59° |
| 2026-05-04 11:13 | 53.49817 | -2.82784 | 7702 ft | 281 kts | 59° |
| 2026-05-04 11:13 | 53.50787 | -2.79952 | 7322 ft | 278 kts | 59° |
| 2026-05-04 11:13 | 53.51669 | -2.77135 | 7190 ft | 267 kts | 70° |
| 2026-05-04 11:13 | 53.51883 | -2.74109 | 7016 ft | 260 kts | 96° |
| 2026-05-04 11:14 | 53.51275 | -2.71308 | 6910 ft | 258 kts | 123° |
| 2026-05-04 11:14 | 53.49988 | -2.69245 | 6705 ft | 258 kts | 150° |
| 2026-05-04 11:14 | 53.48865 | -2.68469 | 6561 ft | 259 kts | 162° |
| 2026-05-04 11:16 | 53.36809 | -2.62049 | 4749 ft | 252 kts | 161° |
| 2026-05-04 11:16 | 53.35163 | -2.61169 | 4508 ft | 244 kts | 162° |
| 2026-05-04 11:16 | 53.33561 | -2.60312 | 4296 ft | 241 kts | 161° |
| 2026-05-04 11:17 | 53.31965 | -2.59461 | 4082 ft | 240 kts | 162° |
| 2026-05-04 11:17 | 53.30377 | -2.58617 | 3881 ft | 239 kts | 161° |
| 2026-05-04 11:19 | 53.24158 | -2.49646 | 3033 ft | 182 kts | 50° |
| 2026-05-04 11:19 | 53.24948 | -2.48025 | 2906 ft | 182 kts | 49° |
| 2026-05-04 11:19 | 53.25748 | -2.46396 | 2686 ft | 180 kts | 49° |
| 2026-05-04 11:19 | 53.26525 | -2.44803 | 2448 ft | 172 kts | 49° |
| 2026-05-04 11:20 | 53.27258 | -2.43298 | 2231 ft | 163 kts | 49° |
| 2026-05-04 11:20 | 53.27966 | -2.41844 | 2008 ft | 160 kts | 49° |
| 2026-05-04 11:20 | 53.28664 | -2.40409 | 1796 ft | 157 kts | 49° |
| 2026-05-04 11:20 | 53.29330 | -2.39038 | 1575 ft | 147 kts | 49° |
| 2026-05-04 11:22 | 53.33577 | -2.30277 | 209 ft | 122 kts | 50° |
| 2026-05-04 11:22 | 53.34003 | -2.29400 | 215 ft | 72 kts | 51° |
| 2026-05-04 11:23 | 53.34251 | -2.28890 | 220 ft | 47 kts | 51° |
| 2026-05-04 11:23 | 53.34417 | -2.28614 | 223 ft | 29 kts | 31° |
| 2026-05-04 11:24 | 53.35075 | -2.28124 | 231 ft | 19 kts | 321° |
| 2026-05-04 11:25 | 53.35185 | -2.28203 | 231 ft | 15 kts | 3° |
| 2026-05-04 11:25 | 53.35289 | -2.28176 | 233 ft | 15 kts | 21° |
| 2026-05-04 11:25 | 53.35373 | -2.28056 | 234 ft | 17 kts | 44° |
| 2026-05-04 11:26 | 53.35551 | -2.27766 | 238 ft | 19 kts | 44° |
| 2026-05-04 11:27 | 53.36121 | -2.27632 | 244 ft | 4 kts | 15° |
| 2026-05-04 11:28 | 53.36146 | -2.27621 | 244 ft | 3 kts | 15° |
| 2026-05-04 11:28 | 53.36154 | -2.27618 | 244 ft | 0 kts | 15° |